Time;durP1;ratioP1;P1;durP2;ratioP2;P2;SDS_P1;SDS_P2;PMS_P1;PMS_P2;Temp;Humidity;BMP_temperature;BMP_pressure;BME280_temperature;BME280_humidity;BME280_pressure;Samples;Min_cycle;Max_cycle;Signal;HPM_P1;HPM_P2
2024/03/15 00:02:41;;;;;;;43.90;29.30;;;;;;;2.57;100.00;99459.06;448075;1241;139481;-74
2024/03/15 00:12:46;;;;;;;46.30;29.40;;;;;;;2.48;100.00;99452.95;447935;1237;139225;-59
2024/03/15 00:22:50;;;;;;;39.70;25.80;;;;;;;2.41;100.00;99449.03;447666;1241;139497;-58
2024/03/15 00:32:53;;;;;;;40.20;25.80;;;;;;;2.32;100.00;99445.67;448153;1240;139036;-60
2024/03/15 00:42:56;;;;;;;39.10;26.00;;;;;;;2.20;100.00;99434.65;447093;1240;139548;-60
2024/03/15 00:53:00;;;;;;;41.50;28.20;;;;;;;2.14;100.00;99427.11;447492;1240;139033;-58
2024/03/15 01:03:03;;;;;;;41.60;29.00;;;;;;;2.07;100.00;99425.74;447494;1240;139367;-58
2024/03/15 01:13:06;;;;;;;40.70;27.70;;;;;;;2.01;100.00;99419.92;447471;1238;139711;-58
2024/03/15 01:23:10;;;;;;;42.60;27.50;;;;;;;1.93;100.00;99413.05;447488;1239;139429;-58
2024/03/15 01:33:13;;;;;;;43.70;29.70;;;;;;;1.83;100.00;99411.64;448426;1239;139756;-74
2024/03/15 01:43:17;;;;;;;52.00;34.30;;;;;;;1.78;100.00;99409.04;447626;1241;139173;-76
2024/03/15 01:53:21;;;;;;;45.20;29.80;;;;;;;1.73;100.00;99405.23;449126;1237;139703;-59
2024/03/15 02:03:24;;;;;;;50.60;31.90;;;;;;;1.64;100.00;99404.96;447875;1240;139562;-59
2024/03/15 02:13:27;;;;;;;51.90;31.80;;;;;;;1.59;100.00;99394.27;447375;1238;139729;-59
2024/03/15 02:23:30;;;;;;;44.90;29.80;;;;;;;1.55;100.00;99390.23;447586;1240;139914;-60
2024/03/15 02:33:34;;;;;;;43.00;28.40;;;;;;;1.50;100.00;99388.65;447812;1240;139267;-73
2024/03/15 02:43:38;;;;;;;54.70;34.70;;;;;;;1.46;100.00;99387.05;448366;1241;139205;-59
2024/03/15 02:53:41;;;;;;;45.00;30.90;;;;;;;1.43;100.00;99381.10;449130;1240;139883;-60
2024/03/15 03:03:44;;;;;;;47.90;30.40;;;;;;;1.40;100.00;99386.02;447819;1240;139450;-58
2024/03/15 03:13:48;;;;;;;42.40;28.30;;;;;;;1.33;100.00;99382.27;447398;1240;139531;-59
2024/03/15 03:23:56;;;;;;;38.50;27.20;;;;;;;1.28;100.00;99379.83;447336;1240;139549;-59
2024/03/15 03:34:00;;;;;;;42.20;28.10;;;;;;;1.17;100.00;99382.02;447063;1239;139149;-59
2024/03/15 03:44:03;;;;;;;40.80;27.10;;;;;;;1.13;100.00;99378.00;447218;1238;138970;-72
2024/03/15 03:54:07;;;;;;;40.40;26.60;;;;;;;1.07;100.00;99380.22;447447;1241;139714;-74
2024/03/15 04:04:11;;;;;;;40.70;25.50;;;;;;;1.04;100.00;99386.02;447834;1237;139497;-74
2024/03/15 04:14:14;;;;;;;36.60;24.90;;;;;;;0.99;100.00;99385.64;447523;1240;140036;-73
2024/03/15 04:24:17;;;;;;;41.30;26.00;;;;;;;0.93;100.00;99383.40;447442;1237;139427;-72
2024/03/15 04:34:21;;;;;;;43.00;26.10;;;;;;;0.85;100.00;99384.27;447413;1236;139318;-72
2024/03/15 04:44:24;;;;;;;38.70;24.20;;;;;;;0.77;100.00;99385.00;447323;1240;139213;-59
2024/03/15 04:54:27;;;;;;;33.90;23.90;;;;;;;0.75;100.00;99382.33;446969;1240;140153;-59
2024/03/15 05:04:30;;;;;;;40.80;25.40;;;;;;;0.76;100.00;99378.85;448590;1238;139206;-59
2024/03/15 05:14:34;;;;;;;32.70;23.50;;;;;;;0.84;100.00;99377.94;447220;1235;139637;-59
2024/03/15 05:24:37;;;;;;;31.10;22.80;;;;;;;1.02;100.00;99374.15;447083;1240;139027;-57
2024/03/15 05:34:40;;;;;;;37.60;24.70;;;;;;;1.39;100.00;99378.61;447243;1235;139040;-59
2024/03/15 05:44:44;;;;;;;29.40;22.20;;;;;;;1.94;100.00;99377.29;447513;1237;139647;-60
2024/03/15 05:54:48;;;;;;;28.80;21.40;;;;;;;3.24;100.00;99380.94;448344;1240;139705;-59
2024/03/15 06:04:51;;;;;;;25.20;19.20;;;;;;;5.79;100.00;99376.49;447980;1238;139151;-59
2024/03/15 06:14:55;;;;;;;26.90;19.70;;;;;;;7.68;100.00;99368.66;447523;1239;139581;-61
2024/03/15 06:24:59;;;;;;;20.80;16.80;;;;;;;9.26;100.00;99373.51;447107;1241;140168;-59
2024/03/15 06:35:16;;;;;;;20.90;17.50;;;;;;;8.94;100.00;99378.64;447417;1238;139800;-74
2024/03/15 06:45:36;;;;;;;22.00;17.40;;;;;;;10.61;100.00;99378.98;443531;1240;5098469;-75
2024/03/15 06:55:39;;;;;;;16.60;14.90;;;;;;;13.88;100.00;99369.42;447505;1240;139761;-59
2024/03/15 07:05:42;;;;;;;16.00;14.10;;;;;;;16.52;97.43;99363.60;447192;1239;138827;-59
2024/03/15 07:15:46;;;;;;;12.70;10.80;;;;;;;17.74;91.36;99365.20;447373;1239;138631;-61
2024/03/15 07:25:51;;;;;;;16.30;14.90;;;;;;;19.52;87.08;99362.80;447193;1238;138582;-61
2024/03/15 07:36:01;;;;;;;14.20;12.80;;;;;;;21.64;81.00;99352.90;447061;1240;138573;-61
2024/03/15 07:46:05;;;;;;;15.20;13.90;;;;;;;22.55;75.22;99350.76;447386;1238;138510;-61
2024/03/15 07:56:09;;;;;;;13.20;12.10;;;;;;;22.69;70.41;99352.78;447679;1240;138909;-72
2024/03/15 08:06:12;;;;;;;14.70;13.60;;;;;;;23.59;67.33;99356.16;447562;1241;139427;-70
2024/03/15 08:16:23;;;;;;;11.50;10.60;;;;;;;25.95;62.13;99350.30;447151;1236;139626;-60
2024/03/15 08:26:28;;;;;;;12.30;11.10;;;;;;;27.83;53.41;99346.23;446967;1236;138995;-61
2024/03/15 08:36:32;;;;;;;11.10;10.20;;;;;;;27.61;49.18;99339.48;447527;1236;138788;-60
2024/03/15 08:46:36;;;;;;;9.60;8.80;;;;;;;25.57;45.21;99344.20;447711;1238;139238;-60
2024/03/15 08:56:40;;;;;;;11.20;10.20;;;;;;;23.62;45.01;99344.91;447988;1240;140687;-60
2024/03/15 09:06:43;;;;;;;10.10;9.10;;;;;;;23.64;45.59;99337.84;447856;1241;139185;-61
2024/03/15 09:16:50;;;;;;;10.40;8.50;;;;;;;21.79;44.73;99332.39;447945;1236;139037;-60
2024/03/15 09:26:54;;;;;;;9.90;8.60;;;;;;;17.85;46.36;99329.34;447430;1238;138620;-60
2024/03/15 09:37:02;;;;;;;8.60;7.70;;;;;;;15.53;49.30;99328.11;447128;1240;138481;-60
2024/03/15 09:47:10;;;;;;;9.90;8.20;;;;;;;14.51;51.70;99323.62;447469;1240;138892;-60
2024/03/15 09:57:16;;;;;;;8.00;7.20;;;;;;;13.76;53.15;99312.00;449094;1239;138324;-60
2024/03/15 10:07:22;;;;;;;6.20;5.60;;;;;;;13.17;53.86;99307.00;447685;1240;138512;-60
2024/03/15 10:17:25;;;;;;;9.70;8.30;;;;;;;12.91;54.73;99304.69;447189;1236;138488;-60
2024/03/15 10:27:28;;;;;;;9.90;7.60;;;;;;;12.66;55.70;99296.58;447478;1240;138827;-59
2024/03/15 10:37:32;;;;;;;9.60;7.20;;;;;;;12.64;56.78;99294.45;448739;1240;139310;-59
2024/03/15 10:47:35;;;;;;;7.60;6.00;;;;;;;12.41;56.67;99302.14;447468;1240;139313;-61
2024/03/15 10:57:40;;;;;;;7.30;6.20;;;;;;;12.20;56.88;99299.52;447529;1239;138877;-61
2024/03/15 11:07:43;;;;;;;7.50;6.30;;;;;;;11.97;56.89;99289.48;447486;1236;138929;-59
2024/03/15 11:17:56;;;;;;;6.80;5.80;;;;;;;11.68;57.40;99279.50;447318;1239;138476;-59
2024/03/15 11:28:00;;;;;;;6.30;5.60;;;;;;;11.61;57.78;99272.05;447924;1236;138882;-77
2024/03/15 11:38:04;;;;;;;6.90;5.40;;;;;;;11.62;57.98;99264.31;447447;1236;139247;-76
2024/03/15 11:48:16;;;;;;;20.90;7.00;;;;;;;11.69;57.32;99262.37;447484;1240;138793;-60
2024/03/15 11:58:21;;;;;;;9.20;7.30;;;;;;;11.81;57.19;99249.20;447745;1236;139558;-59
2024/03/15 12:08:25;;;;;;;7.80;6.30;;;;;;;11.96;56.80;99239.55;447234;1241;138831;-60
2024/03/15 12:18:29;;;;;;;9.20;6.90;;;;;;;12.04;56.28;99231.06;447161;1241;138978;-59
2024/03/15 12:28:33;;;;;;;9.40;7.60;;;;;;;12.29;56.24;99226.23;447768;1236;138524;-60
2024/03/15 12:38:36;;;;;;;8.10;7.10;;;;;;;12.52;56.08;99220.03;448382;1235;139882;-78
2024/03/15 12:48:39;;;;;;;10.50;8.00;;;;;;;12.59;55.92;99217.95;447531;1237;138754;-59
2024/03/15 12:58:42;;;;;;;9.90;8.30;;;;;;;12.52;56.48;99214.98;447681;1237;139707;-60
2024/03/15 13:08:45;;;;;;;10.00;9.00;;;;;;;12.39;56.67;99208.21;447155;1236;138885;-59
2024/03/15 13:18:48;;;;;;;10.40;7.70;;;;;;;12.26;57.04;99203.83;447723;1236;139150;-76
2024/03/15 13:28:53;;;;;;;10.20;7.60;;;;;;;12.16;57.60;99202.94;447945;1240;138589;-74
2024/03/15 13:38:56;;;;;;;10.90;8.60;;;;;;;12.11;57.84;99193.15;448278;1239;139249;-59
2024/03/15 13:49:00;;;;;;;10.90;9.50;;;;;;;12.01;58.52;99188.85;447843;1240;138798;-59
2024/03/15 13:59:04;;;;;;;13.00;10.10;;;;;;;11.95;59.14;99173.32;447848;1240;139189;-60
2024/03/15 14:09:07;;;;;;;12.00;8.80;;;;;;;11.77;59.46;99161.47;447815;1236;138834;-58
2024/03/15 14:19:13;;;;;;;12.10;10.10;;;;;;;11.72;60.18;99150.86;447874;1240;139237;-76
2024/03/15 14:29:20;;;;;;;14.00;9.30;;;;;;;11.52;60.68;99147.98;448080;1236;138798;-75
2024/03/15 14:39:24;;;;;;;12.10;9.50;;;;;;;11.37;61.33;99142.06;448307;1240;139030;-58
2024/03/15 14:49:27;;;;;;;12.50;8.30;;;;;;;11.20;61.83;99142.94;447948;1236;139213;-60
2024/03/15 14:59:31;;;;;;;16.50;9.90;;;;;;;10.93;62.73;99134.19;449553;1240;139767;-74
2024/03/15 15:09:34;;;;;;;11.40;10.20;;;;;;;10.84;63.56;99129.43;449063;1240;139119;-61
2024/03/15 15:19:38;;;;;;;15.10;11.20;;;;;;;10.72;64.23;99121.17;447649;1240;139206;-59
2024/03/15 15:29:42;;;;;;;15.30;10.80;;;;;;;10.57;64.93;99121.21;447798;1240;138791;-59
2024/03/15 15:39:45;;;;;;;16.00;11.10;;;;;;;10.35;65.57;99120.98;448051;1236;138701;-61
2024/03/15 15:49:48;;;;;;;14.00;11.50;;;;;;;10.16;66.44;99123.16;448102;1240;139108;-76
2024/03/15 15:59:52;;;;;;;14.30;12.20;;;;;;;9.99;67.33;99128.48;447773;1240;139484;-75
2024/03/15 16:09:55;;;;;;;18.10;11.80;;;;;;;9.80;68.15;99121.10;447973;1240;138583;-75
2024/03/15 16:19:58;;;;;;;15.60;11.40;;;;;;;9.58;68.89;99124.46;447962;1240;139005;-75
2024/03/15 16:30:04;;;;;;;14.60;11.60;;;;;;;9.37;69.78;99123.95;447870;1240;138566;-60
2024/03/15 16:40:10;;;;;;;17.90;12.50;;;;;;;9.17;70.63;99125.36;447646;1240;139208;-61
2024/03/15 16:50:14;;;;;;;18.90;11.90;;;;;;;8.97;71.45;99122.50;447973;1239;139480;-75
2024/03/15 17:00:18;;;;;;;20.30;12.90;;;;;;;8.77;72.25;99121.35;448418;1240;140103;-74
2024/03/15 17:10:21;;;;;;;19.90;13.10;;;;;;;8.60;73.17;99125.92;448097;1240;141583;-76
2024/03/15 17:20:25;;;;;;;18.90;12.90;;;;;;;8.45;74.07;99127.34;448913;1240;139707;-75
2024/03/15 17:30:28;;;;;;;15.00;11.50;;;;;;;8.33;74.91;99130.84;447864;1236;139115;-60
2024/03/15 17:40:32;;;;;;;17.20;14.50;;;;;;;8.20;75.60;99128.15;448335;1240;138973;-60
2024/03/15 17:50:36;;;;;;;19.80;13.40;;;;;;;8.08;76.56;99130.60;447896;1240;139022;-58
2024/03/15 18:00:39;;;;;;;22.60;15.80;;;;;;;7.97;77.41;99133.73;447618;1241;140173;-59
2024/03/15 18:10:43;;;;;;;22.80;15.90;;;;;;;7.84;77.99;99131.33;447880;1237;139331;-59
2024/03/15 18:20:47;;;;;;;22.60;14.80;;;;;;;7.75;78.76;99127.55;447795;1241;139037;-59
2024/03/15 18:30:51;;;;;;;21.90;15.40;;;;;;;7.65;79.75;99129.71;448988;1236;139999;-66
2024/03/15 18:40:54;;;;;;;25.70;18.20;;;;;;;7.54;80.32;99138.18;445927;1240;5085618;-67
2024/03/15 18:50:57;;;;;;;23.50;16.00;;;;;;;7.39;81.04;99135.02;448144;1239;139600;-67
2024/03/15 19:01:09;;;;;;;20.00;15.10;;;;;;;7.23;81.81;99129.80;447470;1240;139517;-59
2024/03/15 19:11:12;;;;;;;21.10;15.00;;;;;;;7.10;82.56;99132.31;447550;1240;139588;-59
2024/03/15 19:21:17;;;;;;;19.60;13.90;;;;;;;6.98;83.16;99131.58;448296;1240;139129;-58
2024/03/15 19:31:28;;;;;;;19.50;13.90;;;;;;;6.87;83.58;99133.41;447954;1240;140296;-59
2024/03/15 19:41:31;;;;;;;25.40;17.30;;;;;;;6.76;84.21;99124.27;447230;1240;140094;-59
2024/03/15 19:51:34;;;;;;;20.60;14.60;;;;;;;6.68;84.69;99127.12;447961;1240;139643;-59
2024/03/15 20:01:37;;;;;;;27.70;17.40;;;;;;;6.63;85.02;99122.91;447455;1240;139241;-73
2024/03/15 20:11:41;;;;;;;22.00;16.60;;;;;;;6.57;85.58;99122.00;447229;1240;139803;-68
2024/03/15 20:21:44;;;;;;;21.40;16.40;;;;;;;6.51;85.77;99118.36;448113;1239;139002;-66
2024/03/15 20:31:48;;;;;;;25.80;17.70;;;;;;;6.44;86.00;99119.09;448036;1240;138990;-64
2024/03/15 20:41:51;;;;;;;21.50;15.70;;;;;;;6.35;86.50;99116.09;447619;1240;139696;-61
2024/03/15 20:51:55;;;;;;;25.10;18.20;;;;;;;6.29;86.99;99113.80;447314;1240;139454;-61
2024/03/15 21:02:08;;;;;;;28.80;19.60;;;;;;;6.20;87.21;99110.95;448827;1238;139417;-68
2024/03/15 21:12:11;;;;;;;23.40;16.20;;;;;;;6.11;87.64;99118.58;447742;1240;139493;-64
2024/03/15 21:22:15;;;;;;;27.10;18.80;;;;;;;6.03;88.07;99117.05;448047;1239;139045;-64
2024/03/15 21:32:18;;;;;;;30.80;20.20;;;;;;;5.97;88.70;99113.85;447837;1240;139627;-63
2024/03/15 21:42:22;;;;;;;26.90;20.00;;;;;;;5.94;89.07;99113.17;447553;1240;139230;-63
2024/03/15 21:52:26;;;;;;;26.20;19.00;;;;;;;5.92;89.47;99106.30;449472;1238;139074;-66
2024/03/15 22:02:29;;;;;;;28.80;19.00;;;;;;;5.94;90.02;99104.48;447376;1240;139600;-70
2024/03/15 22:12:32;;;;;;;25.80;19.80;;;;;;;5.95;90.43;99096.79;449507;1240;139657;-64
2024/03/15 22:22:35;;;;;;;30.40;21.40;;;;;;;5.96;90.65;99097.96;447456;1236;139622;-64
2024/03/15 22:32:38;;;;;;;44.20;22.90;;;;;;;5.95;90.93;99096.09;447624;1240;140128;-66
2024/03/15 22:42:42;;;;;;;28.80;21.30;;;;;;;5.95;91.15;99094.36;447444;1240;139436;-67
2024/03/15 22:52:46;;;;;;;29.10;21.20;;;;;;;5.93;91.57;99095.33;447752;1240;139646;-65
2024/03/15 23:02:53;;;;;;;34.80;22.00;;;;;;;5.92;92.00;99096.79;448669;1240;139628;-65
2024/03/15 23:12:57;;;;;;;29.00;20.60;;;;;;;5.92;92.45;99091.57;448131;1240;139030;-67
2024/03/15 23:23:00;;;;;;;25.60;19.70;;;;;;;5.95;92.81;99088.27;447585;1240;139520;-67
2024/03/15 23:33:06;;;;;;;31.80;22.60;;;;;;;6.00;93.07;99085.91;447788;1240;139147;-64
2024/03/15 23:43:12;;;;;;;29.10;21.50;;;;;;;6.00;93.17;99083.84;448102;1239;139105;-64
2024/03/15 23:53:15;;;;;;;31.60;21.70;;;;;;;5.94;93.16;99084.00;447773;1240;139196;-63
